Time;durP1;ratioP1;P1;durP2;ratioP2;P2;SDS_P1;SDS_P2;PMS_P1;PMS_P2;Temp;Humidity;BMP_temperature;BMP_pressure;BME280_temperature;BME280_humidity;BME280_pressure;Samples;Min_cycle;Max_cycle;Signal;HPM_P1;HPM_P2
2023/03/12 00:00:38;;;;;;;8.02;2.03;;;1.20;99.90;;;;;;4968895;28;20559;-73
2023/03/12 00:03:04;;;;;;;6.80;2.50;;;1.20;99.90;;;;;;4960110;28;20479;-75
2023/03/12 00:05:30;;;;;;;5.00;1.80;;;1.20;99.90;;;;;;4983286;28;20068;-73
2023/03/12 00:07:58;;;;;;;5.50;2.08;;;1.10;99.90;;;;;;4971662;28;20085;-73
2023/03/12 00:10:27;;;;;;;4.10;1.80;;;1.20;99.90;;;;;;4948605;28;20097;-72
2023/03/12 00:12:56;;;;;;;4.68;2.28;;;1.20;99.90;;;;;;4964049;28;20058;-73
2023/03/12 00:15:21;;;;;;;;;;;1.20;99.90;;;;;;4977207;28;20054;-73
2023/03/12 00:17:47;;;;;;;3.70;2.03;;;1.20;99.90;;;;;;4996210;28;20032;-73
2023/03/12 00:20:13;;;;;;;8.13;1.98;;;1.10;99.90;;;;;;4981369;28;20407;-73
2023/03/12 00:22:39;;;;;;;8.40;2.30;;;1.10;99.90;;;;;;4963609;28;20438;-73
2023/03/12 00:25:06;;;;;;;10.85;2.47;;;1.10;99.90;;;;;;4979029;28;20088;-75
2023/03/12 00:27:32;;;;;;;9.88;2.33;;;1.10;99.90;;;;;;4960331;28;20503;-75
2023/03/12 00:29:58;;;;;;;4.45;1.90;;;1.20;99.90;;;;;;4953271;28;20043;-73
2023/03/12 00:32:24;;;;;;;6.10;2.03;;;1.00;99.90;;;;;;4971347;28;20081;-73
2023/03/12 00:34:50;;;;;;;8.77;2.10;;;1.10;99.90;;;;;;4971331;28;20074;-73
2023/03/12 00:37:16;;;;;;;8.75;1.95;;;1.10;99.90;;;;;;4960429;28;20061;-72
2023/03/12 00:39:42;;;;;;;5.63;2.00;;;1.10;99.90;;;;;;4982516;28;20054;-72
2023/03/12 00:42:08;;;;;;;5.03;2.03;;;1.10;99.90;;;;;;4987697;28;20066;-72
2023/03/12 00:44:33;;;;;;;6.43;2.70;;;1.00;99.90;;;;;;4983661;28;20584;-72
2023/03/12 00:47:00;;;;;;;6.10;1.90;;;1.10;99.90;;;;;;4976739;28;20502;-73
2023/03/12 00:49:26;;;;;;;7.47;2.28;;;1.00;99.90;;;;;;4951473;28;20042;-73
2023/03/12 00:51:52;;;;;;;4.97;1.95;;;1.10;99.90;;;;;;4981212;28;20054;-73
2023/03/12 00:54:19;;;;;;;4.93;1.90;;;1.10;99.90;;;;;;4979280;28;20662;-72
2023/03/12 00:56:45;;;;;;;6.43;1.85;;;1.10;99.90;;;;;;4937804;28;20080;-73
2023/03/12 00:59:12;;;;;;;6.68;2.20;;;1.00;99.90;;;;;;4931082;28;20038;-72
2023/03/12 01:01:38;;;;;;;3.80;1.75;;;1.00;99.90;;;;;;4958600;28;20410;-73
2023/03/12 01:04:03;;;;;;;4.22;2.10;;;1.10;99.90;;;;;;4960194;28;20134;-72
2023/03/12 01:06:29;;;;;;;5.90;2.35;;;1.10;99.90;;;;;;4950893;28;20064;-73
2023/03/12 01:08:55;;;;;;;6.03;1.92;;;1.10;99.90;;;;;;4944264;28;20426;-73
2023/03/12 01:11:21;;;;;;;6.30;1.90;;;1.10;99.90;;;;;;4964017;28;20051;-72
2023/03/12 01:13:46;;;;;;;5.00;2.10;;;1.00;99.90;;;;;;4985340;28;20050;-73
2023/03/12 01:16:15;;;;;;;5.45;2.10;;;1.00;99.90;;;;;;4947117;28;20046;-73
2023/03/12 01:18:41;;;;;;;2.95;1.70;;;0.90;99.90;;;;;;4982226;28;20068;-73
2023/03/12 01:21:06;;;;;;;4.05;1.65;;;1.00;99.90;;;;;;4969562;28;20124;-73
2023/03/12 01:23:32;;;;;;;5.97;1.70;;;1.00;99.90;;;;;;4970825;28;20789;-73
2023/03/12 01:25:58;;;;;;;6.50;1.90;;;0.90;99.90;;;;;;4951937;28;20458;-73
2023/03/12 01:28:24;;;;;;;6.53;1.90;;;1.00;99.90;;;;;;4985482;28;20101;-72
2023/03/12 01:30:50;;;;;;;5.10;1.90;;;0.90;99.90;;;;;;4950215;28;20078;-72
2023/03/12 01:33:16;;;;;;;3.85;1.95;;;0.90;99.90;;;;;;4985612;28;20069;-73
2023/03/12 01:35:41;;;;;;;6.22;2.00;;;0.80;99.90;;;;;;4963477;28;20076;-72
2023/03/12 01:38:11;;;;;;;5.35;1.83;;;0.90;99.90;;;;;;4968961;28;20050;-72
2023/03/12 01:40:37;;;;;;;4.85;2.08;;;0.80;99.90;;;;;;4952798;28;20439;-72
2023/03/12 01:43:32;;;;;;;8.77;2.45;;;0.80;99.90;;;;;;4964224;28;20078;-72
2023/03/12 01:46:03;;;;;;;4.90;1.80;;;0.80;99.90;;;;;;4980648;28;20054;-72
2023/03/12 01:48:35;;;;;;;6.05;1.70;;;0.80;99.90;;;;;;4967519;28;20451;-72
2023/03/12 01:51:01;;;;;;;7.07;1.85;;;0.80;99.90;;;;;;4979221;28;20042;-72
2023/03/12 01:53:28;;;;;;;5.50;1.90;;;0.80;99.90;;;;;;4946537;28;20468;-72
2023/03/12 01:55:54;;;;;;;3.55;1.67;;;0.70;99.90;;;;;;4947819;28;20061;-72
2023/03/12 01:58:21;;;;;;;4.03;1.83;;;0.60;99.90;;;;;;4964615;28;20047;-72
2023/03/12 02:00:46;;;;;;;6.40;2.10;;;0.60;99.90;;;;;;4984038;28;20715;-72
2023/03/12 02:03:14;;;;;;;7.30;1.80;;;0.60;99.90;;;;;;4989975;28;20042;-72
2023/03/12 02:05:50;;;;;;;7.80;2.43;;;0.50;99.90;;;;;;4966706;28;20050;-72
2023/03/12 02:08:17;;;;;;;3.55;1.70;;;0.50;99.90;;;;;;4951641;28;20134;-72
2023/03/12 02:10:44;;;;;;;4.53;1.90;;;0.50;99.90;;;;;;4981575;28;20070;-72
2023/03/12 02:13:11;;;;;;;4.50;1.75;;;0.50;99.90;;;;;;4968055;28;20042;-72
2023/03/12 02:15:37;;;;;;;10.73;2.28;;;0.40;99.90;;;;;;4939354;28;20058;-71
2023/03/12 02:18:05;;;;;;;6.05;1.95;;;0.50;99.90;;;;;;4961684;28;20456;-71
2023/03/12 02:20:58;;;;;;;7.38;2.40;;;0.50;99.90;;;;;;4946032;28;20088;-72
2023/03/12 02:23:34;;;;;;;3.97;1.55;;;0.50;99.90;;;;;;4978025;28;20054;-71
2023/03/12 02:26:00;;;;;;;5.03;2.17;;;0.60;99.90;;;;;;4966556;28;20092;-71
2023/03/12 02:28:27;;;;;;;5.45;1.92;;;0.50;99.90;;;;;;4951841;28;20069;-72
2023/03/12 02:30:55;;;;;;;8.07;2.08;;;0.50;99.90;;;;;;4946540;28;20053;-71
2023/03/12 02:33:22;;;;;;;4.50;2.13;;;0.60;99.90;;;;;;4954540;28;20133;-72
2023/03/12 02:35:48;;;;;;;6.63;2.08;;;0.40;99.90;;;;;;4965454;28;20140;-71
2023/03/12 02:38:34;;;;;;;7.30;2.28;;;0.40;99.90;;;;;;4964080;28;20042;-72
2023/03/12 02:41:09;;;;;;;6.90;1.98;;;0.40;99.90;;;;;;4984351;28;20057;-71
2023/03/12 02:43:35;;;;;;;4.90;1.67;;;0.30;99.90;;;;;;4956494;28;20503;-71
2023/03/12 02:46:01;;;;;;;4.57;1.88;;;0.30;99.90;;;;;;4963478;28;20050;-72
2023/03/12 02:48:27;;;;;;;9.63;2.17;;;0.20;99.90;;;;;;4974063;28;20116;-71
2023/03/12 02:50:52;;;;;;;9.90;2.10;;;0.30;99.90;;;;;;4961766;28;20042;-71
2023/03/12 02:53:18;;;;;;;7.25;2.33;;;0.10;99.90;;;;;;4977957;28;20057;-71
2023/03/12 02:55:44;;;;;;;8.13;1.67;;;0.00;99.90;;;;;;4949727;28;20156;-71
2023/03/12 02:58:10;;;;;;;7.50;1.90;;;0.10;99.90;;;;;;4983540;28;20129;-71
2023/03/12 03:00:36;;;;;;;7.70;2.53;;;0.10;99.90;;;;;;4987291;28;20065;-71
2023/03/12 03:03:02;;;;;;;6.47;2.40;;;0.10;99.90;;;;;;4980312;28;20484;-72
2023/03/12 03:05:28;;;;;;;4.30;2.00;;;0.00;99.90;;;;;;4960901;28;20082;-72
2023/03/12 03:07:53;;;;;;;7.45;2.10;;;-0.10;99.90;;;;;;4988017;28;20281;-72
2023/03/12 03:10:19;;;;;;;4.43;2.05;;;-0.10;99.90;;;;;;4966025;28;20435;-72
2023/03/12 03:12:45;;;;;;;6.72;1.70;;;-0.10;99.90;;;;;;4992176;28;20533;-71
2023/03/12 03:15:11;;;;;;;3.75;1.92;;;-0.10;99.90;;;;;;4987413;28;20065;-72
2023/03/12 03:17:37;;;;;;;3.92;1.80;;;-0.20;99.90;;;;;;4961580;28;20157;-71
2023/03/12 03:20:07;;;;;;;8.65;2.10;;;-0.10;99.90;;;;;;4974114;28;20376;-71
2023/03/12 03:22:34;;;;;;;9.70;2.50;;;-0.10;99.90;;;;;;4983781;28;20155;-71
2023/03/12 03:24:59;;;;;;;6.85;1.98;;;0.00;99.90;;;;;;4942634;28;20057;-72
2023/03/12 03:27:25;;;;;;;9.73;1.92;;;0.00;99.90;;;;;;4982973;28;20051;-71
2023/03/12 03:29:51;;;;;;;6.85;1.70;;;0.00;99.90;;;;;;4984603;28;20054;-71
2023/03/12 03:32:17;;;;;;;6.47;2.05;;;0.00;99.90;;;;;;4977678;28;20652;-71
2023/03/12 03:34:42;;;;;;;6.75;1.98;;;0.00;99.90;;;;;;4983308;28;20149;-72
2023/03/12 03:37:08;;;;;;;4.45;2.17;;;0.00;99.90;;;;;;4988202;28;20046;-71
2023/03/12 03:39:34;;;;;;;5.13;1.60;;;-0.10;99.90;;;;;;4983948;28;20101;-71
2023/03/12 03:42:00;;;;;;;5.07;1.95;;;0.00;99.90;;;;;;4964231;28;20043;-72
2023/03/12 03:44:25;;;;;;;5.90;1.70;;;0.00;99.90;;;;;;4969958;28;20133;-71
2023/03/12 03:46:52;;;;;;;4.90;1.75;;;-0.10;99.90;;;;;;4964204;28;20054;-71
2023/03/12 03:49:18;;;;;;;8.43;1.85;;;-0.10;99.90;;;;;;4969449;28;20042;-72
2023/03/12 03:51:44;;;;;;;7.60;1.90;;;-0.10;99.90;;;;;;4964321;28;20071;-72
2023/03/12 03:54:11;;;;;;;7.85;1.80;;;-0.10;99.90;;;;;;4959563;28;20042;-72
2023/03/12 03:56:37;;;;;;;5.50;2.03;;;-0.10;99.90;;;;;;4944330;28;20101;-72
2023/03/12 03:59:03;;;;;;;7.70;2.47;;;0.00;99.90;;;;;;4952911;28;20695;-72
2023/03/12 04:01:30;;;;;;;4.00;2.22;;;0.00;99.90;;;;;;4959810;28;20046;-72
2023/03/12 04:03:56;;;;;;;4.68;1.63;;;0.00;99.90;;;;;;4986344;28;20050;-72
2023/03/12 04:06:22;;;;;;;5.10;1.90;;;0.00;99.90;;;;;;4931722;28;20050;-72
2023/03/12 04:08:47;;;;;;;4.28;1.65;;;0.00;99.90;;;;;;4951423;28;20105;-72
2023/03/12 04:11:15;;;;;;;5.15;1.90;;;-0.10;99.90;;;;;;4954386;28;20762;-72
2023/03/12 04:13:41;;;;;;;3.40;1.58;;;-0.10;99.90;;;;;;4970723;28;20051;-72
2023/03/12 04:16:07;;;;;;;7.18;1.77;;;0.00;99.90;;;;;;4980591;28;20105;-72
2023/03/12 04:18:34;;;;;;;5.93;1.90;;;0.00;99.90;;;;;;4963893;28;20090;-71
2023/03/12 04:21:02;;;;;;;5.25;1.90;;;-0.10;99.90;;;;;;4953986;28;20046;-72
2023/03/12 04:23:28;;;;;;;7.22;2.72;;;0.00;99.90;;;;;;4935765;28;20447;-71
2023/03/12 04:25:54;;;;;;;7.38;2.38;;;-0.10;99.90;;;;;;4953257;28;20104;-72
2023/03/12 04:28:19;;;;;;;8.00;2.13;;;0.10;99.90;;;;;;4986111;28;20046;-72
2023/03/12 04:30:53;;;;;;;6.00;2.17;;;-0.10;99.90;;;;;;4973348;28;20077;-71
2023/03/12 04:33:19;;;;;;;6.88;2.40;;;-0.10;99.90;;;;;;4954983;28;20383;-72
2023/03/12 04:35:51;;;;;;;4.95;2.03;;;-0.20;99.90;;;;;;4936981;28;20061;-72
2023/03/12 04:38:18;;;;;;;7.50;2.42;;;-0.20;99.90;;;;;;4963851;28;20141;-71
2023/03/12 04:40:44;;;;;;;7.00;2.25;;;-0.20;99.90;;;;;;4979465;28;20058;-71
2023/03/12 04:43:10;;;;;;;6.40;1.98;;;-0.20;99.90;;;;;;4985643;28;20046;-71
2023/03/12 04:45:38;;;;;;;7.30;2.30;;;-0.20;99.90;;;;;;4979216;28;20073;-71
2023/03/12 04:48:04;;;;;;;6.10;1.92;;;-0.20;99.90;;;;;;4964015;28;20396;-71
2023/03/12 04:50:30;;;;;;;6.53;2.08;;;-0.20;99.90;;;;;;4961096;28;20042;-71
2023/03/12 04:52:55;;;;;;;9.52;2.45;;;-0.20;99.90;;;;;;4962665;28;20039;-71
2023/03/12 04:55:22;;;;;;;5.70;2.00;;;-0.10;99.90;;;;;;4987694;28;20433;-72
2023/03/12 04:57:47;;;;;;;5.65;1.92;;;-0.10;99.90;;;;;;4959031;28;20680;-72
2023/03/12 05:00:14;;;;;;;9.40;2.47;;;-0.20;99.90;;;;;;4979784;28;20077;-72
2023/03/12 05:02:40;;;;;;;4.90;2.28;;;-0.20;99.90;;;;;;4959079;28;20057;-72
2023/03/12 05:05:06;;;;;;;6.95;2.15;;;-0.10;99.90;;;;;;4983581;28;20153;-72
2023/03/12 05:07:32;;;;;;;6.40;2.53;;;-0.10;99.90;;;;;;4964934;28;20149;-71
2023/03/12 05:09:58;;;;;;;8.52;2.35;;;-0.10;99.90;;;;;;4966757;28;20161;-72
2023/03/12 05:12:24;;;;;;;6.55;1.90;;;0.00;99.90;;;;;;4975815;28;20053;-71
2023/03/12 05:14:49;;;;;;;4.15;1.90;;;0.10;99.90;;;;;;4944584;28;20038;-72
2023/03/12 05:17:15;;;;;;;5.45;2.30;;;0.00;99.90;;;;;;4979564;28;20078;-72
2023/03/12 05:19:41;;;;;;;5.95;2.15;;;-0.20;99.90;;;;;;4959142;28;20047;-72
2023/03/12 05:22:07;;;;;;;5.78;2.13;;;-0.10;99.90;;;;;;4977123;28;20796;-72
2023/03/12 05:24:32;;;;;;;5.10;2.30;;;-0.20;99.90;;;;;;4962463;28;20074;-71
2023/03/12 05:26:58;;;;;;;6.35;2.50;;;-0.20;99.90;;;;;;4985972;28;20046;-72
2023/03/12 05:29:24;;;;;;;7.00;2.10;;;-0.10;99.90;;;;;;4951089;28;20046;-72
2023/03/12 05:31:49;;;;;;;5.88;1.73;;;0.00;99.90;;;;;;4981886;28;20057;-72
2023/03/12 05:34:15;;;;;;;5.82;2.08;;;-0.10;99.90;;;;;;4978700;28;20046;-72
2023/03/12 05:36:41;;;;;;;3.42;2.10;;;-0.10;99.90;;;;;;4950659;28;20050;-72
2023/03/12 05:39:07;;;;;;;6.55;2.42;;;0.00;99.90;;;;;;4973644;28;20822;-72
2023/03/12 05:41:32;;;;;;;5.38;2.33;;;-0.10;99.90;;;;;;4983823;28;20042;-71
2023/03/12 05:43:58;;;;;;;5.78;2.30;;;-0.10;99.90;;;;;;4966246;28;20089;-72
2023/03/12 05:46:24;;;;;;;5.82;2.53;;;-0.10;99.90;;;;;;4962462;28;20086;-72
2023/03/12 05:48:50;;;;;;;5.10;2.10;;;0.00;99.90;;;;;;4952994;28;20047;-72
2023/03/12 05:51:16;;;;;;;4.55;1.83;;;-0.10;99.90;;;;;;4957950;28;20062;-72
2023/03/12 05:53:41;;;;;;;4.70;1.95;;;-0.10;99.90;;;;;;4978233;28;20043;-72
2023/03/12 05:56:09;;;;;;;6.10;1.95;;;0.00;99.90;;;;;;4988039;28;20380;-72
2023/03/12 05:58:36;;;;;;;6.40;2.25;;;0.00;99.90;;;;;;4936965;28;20055;-72
2023/03/12 06:01:03;;;;;;;8.10;1.95;;;0.00;99.90;;;;;;4965928;28;20767;-72
2023/03/12 06:03:29;;;;;;;6.03;1.70;;;0.00;99.90;;;;;;4975090;28;20130;-72
2023/03/12 06:05:56;;;;;;;6.43;2.05;;;0.00;99.90;;;;;;4945895;28;20664;-72
2023/03/12 06:08:22;;;;;;;5.85;1.90;;;0.00;99.90;;;;;;4956869;28;20506;-72
2023/03/12 06:10:53;;;;;;;5.55;1.67;;;0.00;99.90;;;;;;4979326;28;20407;-72
2023/03/12 06:13:20;;;;;;;5.15;2.28;;;0.00;99.90;;;;;;4978336;28;20926;-72
2023/03/12 06:15:45;;;;;;;3.75;1.80;;;0.20;99.90;;;;;;4964892;28;20532;-72
2023/03/12 06:18:11;;;;;;;5.18;1.88;;;0.10;99.90;;;;;;4984747;28;20135;-72
2023/03/12 06:20:37;;;;;;;4.97;2.10;;;0.00;99.90;;;;;;4946009;28;20066;-72
2023/03/12 06:23:02;;;;;;;6.13;2.17;;;0.10;99.90;;;;;;4965986;28;20434;-72
2023/03/12 06:25:28;;;;;;;8.30;2.25;;;0.20;99.90;;;;;;4977770;28;20529;-72
2023/03/12 06:27:54;;;;;;;6.30;2.63;;;0.20;99.90;;;;;;4945680;28;20093;-73
2023/03/12 06:30:20;;;;;;;8.57;2.47;;;0.20;99.90;;;;;;4991185;28;20042;-73
2023/03/12 06:32:45;;;;;;;6.03;2.33;;;0.20;99.90;;;;;;4967699;28;20054;-72
2023/03/12 06:35:11;;;;;;;6.57;2.65;;;0.20;99.90;;;;;;4974552;28;20072;-72
2023/03/12 06:37:37;;;;;;;8.20;2.45;;;0.20;99.90;;;;;;4983577;28;20065;-72
2023/03/12 06:40:03;;;;;;;8.52;2.38;;;0.30;99.90;;;;;;4974330;28;20051;-72
2023/03/12 06:42:29;;;;;;;12.75;2.35;;;0.40;99.90;;;;;;4976531;28;20051;-72
2023/03/12 06:44:55;;;;;;;4.93;2.20;;;0.40;99.90;;;;;;4956171;28;20132;-72
2023/03/12 06:47:21;;;;;;;4.75;2.03;;;0.50;99.90;;;;;;4983824;28;20061;-71
2023/03/12 06:49:46;;;;;;;7.90;2.10;;;0.70;99.90;;;;;;4956152;28;20053;-71
2023/03/12 06:52:12;;;;;;;7.03;2.30;;;0.70;99.90;;;;;;4983747;28;20092;-72
2023/03/12 06:54:38;;;;;;;5.07;2.17;;;0.70;99.90;;;;;;4977548;28;20054;-72
2023/03/12 06:57:04;;;;;;;6.13;2.33;;;0.70;99.90;;;;;;4963738;28;20538;-73
2023/03/12 06:59:30;;;;;;;7.78;2.67;;;0.60;99.90;;;;;;4973443;28;20054;-72
2023/03/12 07:01:56;;;;;;;6.28;2.47;;;0.70;99.90;;;;;;4981425;28;20043;-73
2023/03/12 07:04:22;;;;;;;6.93;2.30;;;0.80;99.90;;;;;;4981094;28;20667;-72
2023/03/12 07:06:50;;;;;;;5.60;2.15;;;0.70;99.90;;;;;;4981284;28;20042;-71
2023/03/12 07:09:17;;;;;;;4.60;2.03;;;0.80;99.90;;;;;;4976133;28;20053;-72
2023/03/12 07:11:42;;;;;;;10.23;2.42;;;0.80;99.90;;;;;;4994145;28;20039;-73
2023/03/12 07:14:09;;;;;;;9.27;2.63;;;0.80;99.90;;;;;;4938999;28;20046;-72
2023/03/12 07:16:35;;;;;;;7.32;2.00;;;0.90;99.90;;;;;;4977112;28;20054;-72
2023/03/12 07:19:02;;;;;;;8.05;3.47;;;0.90;99.90;;;;;;4955762;28;20077;-72
2023/03/12 07:21:28;;;;;;;8.85;3.58;;;1.00;99.90;;;;;;4965083;28;20539;-73
2023/03/12 07:23:54;;;;;;;7.60;2.50;;;1.00;99.90;;;;;;4942507;28;20177;-74
2023/03/12 07:26:20;;;;;;;4.80;2.20;;;1.10;99.90;;;;;;4951327;28;20463;-73
2023/03/12 07:28:46;;;;;;;12.00;2.53;;;1.10;99.90;;;;;;4942095;28;20419;-73
2023/03/12 07:31:11;;;;;;;7.68;2.15;;;1.20;99.90;;;;;;4960332;28;20062;-73
2023/03/12 07:33:37;;;;;;;5.72;2.25;;;1.20;99.90;;;;;;4949817;28;20446;-71
2023/03/12 07:36:03;;;;;;;6.60;2.30;;;1.20;99.90;;;;;;4981057;28;20046;-73
2023/03/12 07:38:29;;;;;;;9.65;3.15;;;1.20;99.90;;;;;;4954094;28;20049;-72
2023/03/12 07:40:55;;;;;;;4.65;2.40;;;1.20;99.90;;;;;;4981462;28;20042;-71
2023/03/12 07:43:22;;;;;;;7.38;2.58;;;1.20;99.90;;;;;;4980531;28;20136;-71
2023/03/12 07:45:48;;;;;;;6.30;2.53;;;1.30;99.90;;;;;;4946176;28;20414;-71
2023/03/12 07:48:14;;;;;;;6.18;1.90;;;1.30;99.90;;;;;;4950689;28;20130;-72
2023/03/12 07:50:40;;;;;;;7.13;2.72;;;1.50;99.90;;;;;;4954498;28;20122;-72
2023/03/12 07:53:06;;;;;;;5.30;2.10;;;1.60;99.90;;;;;;4984333;28;20153;-71
2023/03/12 07:55:32;;;;;;;7.63;2.72;;;1.60;99.90;;;;;;4951045;28;20449;-71
2023/03/12 07:57:58;;;;;;;8.50;2.47;;;1.60;99.90;;;;;;4945652;28;20129;-72
2023/03/12 08:00:25;;;;;;;8.98;2.45;;;1.60;99.90;;;;;;4953035;28;20149;-72
2023/03/12 08:02:51;;;;;;;6.30;2.60;;;1.60;99.90;;;;;;4967740;28;20081;-71
2023/03/12 08:05:17;;;;;;;7.88;2.80;;;1.60;99.90;;;;;;4952355;28;20073;-71
2023/03/12 08:07:43;;;;;;;6.90;2.28;;;1.80;99.90;;;;;;4968614;28;20046;-71
2023/03/12 08:10:10;;;;;;;12.68;3.35;;;2.00;99.90;;;;;;4977406;28;20046;-73
2023/03/12 08:12:36;;;;;;;6.53;2.40;;;2.00;99.90;;;;;;4987474;28;20077;-74
2023/03/12 08:15:07;;;;;;;8.88;2.15;;;2.00;99.90;;;;;;4976073;28;20078;-71
2023/03/12 08:17:33;;;;;;;4.00;2.13;;;2.10;99.90;;;;;;4938584;28;20089;-73
2023/03/12 08:19:59;;;;;;;7.63;3.17;;;2.20;99.90;;;;;;4962650;28;20085;-71
2023/03/12 08:22:25;;;;;;;5.18;2.20;;;2.20;99.90;;;;;;4974961;28;20535;-71
2023/03/12 08:24:52;;;;;;;5.75;1.90;;;2.30;99.90;;;;;;4984726;28;20043;-71
2023/03/12 08:27:17;;;;;;;5.93;2.15;;;2.40;99.90;;;;;;4964891;28;20636;-71
2023/03/12 08:29:43;;;;;;;4.32;2.00;;;2.60;99.90;;;;;;4969670;28;20098;-71
2023/03/12 08:32:09;;;;;;;6.28;2.25;;;2.70;99.90;;;;;;4974767;28;20066;-72
2023/03/12 08:34:35;;;;;;;6.28;2.10;;;2.60;99.90;;;;;;4971597;28;20046;-73
2023/03/12 08:37:01;;;;;;;4.65;2.20;;;2.70;99.90;;;;;;4940727;28;20706;-73
2023/03/12 08:39:27;;;;;;;9.30;2.45;;;2.80;99.90;;;;;;4964135;28;20129;-72
2023/03/12 08:41:54;;;;;;;7.95;1.90;;;2.80;99.90;;;;;;4934953;28;20051;-72
2023/03/12 08:44:23;;;;;;;4.13;1.90;;;2.90;99.90;;;;;;4984294;28;20066;-72
2023/03/12 08:46:49;;;;;;;6.32;1.98;;;3.10;99.90;;;;;;4967130;28;20438;-73
2023/03/12 08:49:15;;;;;;;8.10;2.17;;;3.20;99.90;;;;;;4964209;28;20133;-73
2023/03/12 08:51:42;;;;;;;9.40;2.53;;;3.20;99.90;;;;;;4952639;28;20444;-72
2023/03/12 08:54:08;;;;;;;3.72;1.95;;;3.30;99.90;;;;;;4983403;28;20129;-73
2023/03/12 08:56:36;;;;;;;6.53;2.22;;;3.30;99.90;;;;;;4966386;28;20046;-73
2023/03/12 08:59:01;;;;;;;7.30;2.00;;;3.40;99.90;;;;;;4966342;28;20052;-72
2023/03/12 09:01:27;;;;;;;6.78;1.77;;;3.50;99.90;;;;;;4968226;28;20051;-72
2023/03/12 09:03:54;;;;;;;6.93;2.17;;;3.50;99.90;;;;;;4978732;28;20542;-73
2023/03/12 09:06:19;;;;;;;7.32;2.00;;;3.50;98.90;;;;;;4951960;28;20053;-73
2023/03/12 09:08:48;;;;;;;9.77;1.90;;;3.40;97.70;;;;;;4961533;28;20050;-72
2023/03/12 09:11:14;;;;;;;5.45;1.80;;;3.30;97.50;;;;;;4957593;28;20038;-72
2023/03/12 09:13:40;;;;;;;8.27;2.00;;;3.50;98.40;;;;;;4941850;28;20641;-73
2023/03/12 09:16:06;;;;;;;6.03;1.77;;;3.50;97.70;;;;;;4942974;28;20046;-73
2023/03/12 09:18:32;;;;;;;6.22;2.30;;;3.50;97.50;;;;;;4962386;28;20161;-73
2023/03/12 09:20:58;;;;;;;5.45;1.83;;;3.50;98.00;;;;;;4970481;28;20149;-73
2023/03/12 09:23:24;;;;;;;7.03;1.80;;;3.60;97.00;;;;;;4980867;28;20491;-72
2023/03/12 09:25:50;;;;;;;7.78;1.75;;;3.70;96.90;;;;;;4977800;28;20130;-72
2023/03/12 09:28:16;;;;;;;5.32;1.88;;;3.70;95.80;;;;;;4966263;28;20436;-73
2023/03/12 09:30:44;;;;;;;6.32;1.80;;;3.90;95.40;;;;;;4979109;28;20043;-73
2023/03/12 09:33:10;;;;;;;5.13;1.90;;;4.00;94.60;;;;;;4959699;28;20525;-72
2023/03/12 09:35:36;;;;;;;6.72;2.25;;;4.10;94.30;;;;;;4981469;28;20110;-71
2023/03/12 09:38:02;;;;;;;7.78;1.90;;;4.40;95.10;;;;;;4961482;28;20458;-71
2023/03/12 09:40:30;;;;;;;8.20;2.78;;;4.50;95.50;;;;;;4978747;28;20066;-72
2023/03/12 09:42:56;;;;;;;5.07;2.07;;;4.60;92.60;;;;;;4982044;28;20046;-71
2023/03/12 09:45:26;;;;;;;8.52;2.17;;;4.80;94.70;;;;;;4984279;28;20356;-69
2023/03/12 09:47:56;;;;;;;8.05;1.67;;;5.30;92.30;;;;;;4942137;28;20456;-70
2023/03/12 09:50:27;;;;;;;4.40;1.75;;;5.20;93.20;;;;;;4951214;28;20081;-70
2023/03/12 09:53:11;;;;;;;8.43;2.20;;;5.20;86.60;;;;;;4981001;28;20150;-71
2023/03/12 09:55:39;;;;;;;6.38;1.70;;;5.30;88.00;;;;;;4947289;28;20078;-70
2023/03/12 09:58:12;;;;;;;6.47;3.03;;;5.20;87.70;;;;;;4930883;28;20114;-70
2023/03/12 10:00:38;;;;;;;13.27;1.98;;;4.80;84.80;;;;;;4975585;28;20396;-70
2023/03/12 10:03:22;;;;;;;6.18;2.22;;;4.80;90.70;;;;;;4972105;28;20136;-70
2023/03/12 10:05:57;;;;;;;5.80;2.67;;;5.30;91.60;;;;;;4977508;28;20137;-71
2023/03/12 10:08:50;;;;;;;4.45;2.00;;;5.00;87.40;;;;;;4979179;28;20074;-72
2023/03/12 10:11:46;;;;;;;6.20;2.00;;;4.80;88.70;;;;;;4982329;28;20101;-71
2023/03/12 10:14:28;;;;;;;5.85;2.10;;;4.80;89.40;;;;;;4974928;28;20664;-72
2023/03/12 10:17:20;;;;;;;5.53;1.98;;;4.70;89.80;;;;;;4967813;28;20483;-71
2023/03/12 10:19:58;;;;;;;4.95;2.28;;;4.60;91.40;;;;;;4984522;28;20059;-71
2023/03/12 10:22:33;;;;;;;8.43;2.63;;;4.50;89.40;;;;;;4973760;28;20047;-71
2023/03/12 10:25:17;;;;;;;4.47;1.95;;;4.60;90.80;;;;;;4938800;28;20055;-72
2023/03/12 10:27:43;;;;;;;6.55;1.95;;;4.60;90.80;;;;;;4977951;28;20059;-72
2023/03/12 10:30:23;;;;;;;6.63;2.05;;;4.70;90.60;;;;;;4946120;28;20077;-72
2023/03/12 10:33:10;;;;;;;3.97;2.38;;;4.60;90.30;;;;;;4963157;28;20058;-72
2023/03/12 10:35:36;;;;;;;6.40;2.17;;;4.50;92.20;;;;;;4943790;28;20046;-72
2023/03/12 10:38:03;;;;;;;8.50;2.63;;;4.60;92.40;;;;;;4952501;28;20046;-73
2023/03/12 10:40:33;;;;;;;7.78;3.15;;;4.40;93.80;;;;;;4977167;28;20045;-73
2023/03/12 10:43:00;;;;;;;6.13;2.70;;;4.40;95.60;;;;;;4950593;28;20521;-74
2023/03/12 10:45:35;;;;;;;10.05;2.90;;;4.30;97.40;;;;;;4982949;28;20046;-72
2023/03/12 10:48:07;;;;;;;6.75;2.45;;;4.40;97.20;;;;;;4958251;28;20074;-73
2023/03/12 10:50:37;;;;;;;7.63;2.95;;;4.30;96.80;;;;;;4981857;28;20058;-72
2023/03/12 10:53:13;;;;;;;6.53;2.50;;;4.20;97.60;;;;;;4957981;28;20110;-72
2023/03/12 10:55:39;;;;;;;6.55;2.70;;;4.30;98.60;;;;;;4981274;28;20125;-72
2023/03/12 10:58:05;;;;;;;7.28;2.88;;;4.20;98.40;;;;;;4969359;28;20058;-72
2023/03/12 11:00:31;;;;;;;6.80;2.60;;;4.20;98.70;;;;;;4951474;28;20051;-72
2023/03/12 11:03:02;;;;;;;6.40;2.22;;;4.30;99.60;;;;;;4962190;28;20058;-71
2023/03/12 11:05:35;;;;;;;4.80;2.20;;;4.30;99.90;;;;;;4949317;28;20046;-71
2023/03/12 11:08:02;;;;;;;8.80;2.55;;;4.30;99.90;;;;;;4965543;28;20364;-71
2023/03/12 11:10:42;;;;;;;8.45;2.05;;;4.50;99.90;;;;;;4943516;28;20054;-72
2023/03/12 11:13:33;;;;;;;6.03;2.00;;;4.60;99.90;;;;;;4958749;28;20503;-71
2023/03/12 11:16:00;;;;;;;5.18;2.00;;;4.60;99.90;;;;;;4963001;28;20046;-72
2023/03/12 11:18:27;;;;;;;5.82;1.42;;;4.60;99.90;;;;;;4948666;28;20056;-72
2023/03/12 11:21:09;;;;;;;7.63;1.70;;;4.60;99.90;;;;;;4964707;28;20069;-72
2023/03/12 11:23:36;;;;;;;7.32;2.20;;;4.60;99.90;;;;;;4977960;28;20043;-72
2023/03/12 11:26:03;;;;;;;4.72;1.50;;;4.50;99.90;;;;;;4962240;28;20050;-73
2023/03/12 11:28:37;;;;;;;3.00;1.20;;;4.60;99.90;;;;;;4976236;28;20049;-72
2023/03/12 11:31:08;;;;;;;5.15;1.27;;;4.40;99.90;;;;;;4969110;28;20794;-72
2023/03/12 11:33:33;;;;;;;3.90;1.20;;;4.30;99.90;;;;;;4958834;28;20165;-73
2023/03/12 11:36:27;;;;;;;6.20;1.50;;;4.20;99.90;;;;;;4963320;28;20955;-73
2023/03/12 11:38:58;;;;;;;6.10;1.50;;;4.30;99.90;;;;;;4955852;28;20138;-72
2023/03/12 11:41:50;;;;;;;5.43;1.30;;;4.40;99.90;;;;;;4980567;28;20070;-72
2023/03/12 11:44:24;;;;;;;4.00;1.17;;;4.40;99.90;;;;;;4982137;28;20382;-72
2023/03/12 11:47:14;;;;;;;9.90;3.92;;;4.20;99.90;;;;;;4988638;28;20042;-73
2023/03/12 11:49:59;;;;;;;3.88;1.35;;;4.10;99.90;;;;;;4956030;28;20097;-72
2023/03/12 11:52:53;;;;;;;4.85;1.10;;;4.20;99.90;;;;;;4987337;28;20050;-73
2023/03/12 11:55:38;;;;;;;6.35;1.60;;;4.20;99.90;;;;;;4985820;28;20142;-73
2023/03/12 11:58:30;;;;;;;4.70;1.20;;;4.10;99.90;;;;;;4978720;28;20050;-73
2023/03/12 12:01:02;;;;;;;6.47;1.17;;;4.10;99.90;;;;;;4988509;28;20138;-73
2023/03/12 12:03:33;;;;;;;4.18;1.23;;;4.10;99.90;;;;;;4975579;28;20050;-74
2023/03/12 12:06:14;;;;;;;3.42;1.23;;;4.20;99.90;;;;;;4980700;28;20058;-73
2023/03/12 12:09:13;;;;;;;3.45;1.27;;;4.10;99.90;;;;;;4987142;28;20042;-73
2023/03/12 12:12:04;;;;;;;11.80;3.25;;;4.00;99.90;;;;;;4979379;28;20542;-75
2023/03/12 12:14:51;;;;;;;6.90;2.38;;;3.80;99.90;;;;;;4985744;28;20397;-75
2023/03/12 12:17:36;;;;;;;5.87;2.37;;;3.90;99.90;;;;;;4972696;28;20054;-75
2023/03/12 12:20:20;;;;;;;7.18;2.40;;;3.90;99.90;;;;;;4991573;28;20475;-75
2023/03/12 12:23:07;;;;;;;4.20;1.48;;;3.80;99.90;;;;;;4984802;28;20510;-75
2023/03/12 12:25:56;;;;;;;1.50;0.98;;;3.90;99.90;;;;;;4978777;28;20039;-75
2023/03/12 12:28:38;;;;;;;3.75;1.20;;;3.90;99.90;;;;;;4972856;28;20078;-74
2023/03/12 12:31:25;;;;;;;2.65;1.17;;;3.70;99.90;;;;;;4961366;28;20069;-75
2023/03/12 12:34:20;;;;;;;5.68;1.45;;;3.80;99.90;;;;;;4971199;28;20043;-74
2023/03/12 12:37:09;;;;;;;4.20;1.25;;;3.80;99.90;;;;;;4943805;28;20054;-74
2023/03/12 12:39:40;;;;;;;2.92;1.10;;;3.80;99.90;;;;;;4945428;28;20077;-74
2023/03/12 12:42:07;;;;;;;2.88;1.30;;;3.90;99.90;;;;;;4972494;28;20830;-74
2023/03/12 12:44:34;;;;;;;4.97;1.20;;;3.80;99.90;;;;;;4956991;28;20129;-74
2023/03/12 12:47:04;;;;;;;3.45;1.30;;;4.00;99.90;;;;;;4945666;28;20064;-74
2023/03/12 12:49:45;;;;;;;4.13;1.50;;;3.90;99.90;;;;;;4954512;28;20047;-74
2023/03/12 12:52:20;;;;;;;6.97;1.65;;;3.90;99.90;;;;;;4980134;28;20074;-74
2023/03/12 12:55:05;;;;;;;4.75;1.50;;;3.90;99.90;;;;;;4984097;28;20453;-74
2023/03/12 12:57:44;;;;;;;4.55;1.42;;;4.00;99.90;;;;;;4960949;28;20046;-74
2023/03/12 13:00:23;;;;;;;3.10;1.40;;;3.80;99.90;;;;;;4967662;28;20043;-74
2023/03/12 13:02:49;;;;;;;6.22;2.00;;;4.00;99.90;;;;;;4968943;28;20046;-74
2023/03/12 13:05:36;;;;;;;6.18;1.40;;;4.00;99.90;;;;;;4962648;28;20058;-74